sensor_id;sensor_type;location;lat;lon;timestamp;temperature;humidity
52965;DHT22;42923;53.220;6.528;2024-02-21T00:02:12;10.80;99.90
52965;DHT22;42923;53.220;6.528;2024-02-21T00:04:38;11.30;99.90
52965;DHT22;42923;53.220;6.528;2024-02-21T00:07:04;10.20;99.90
52965;DHT22;42923;53.220;6.528;2024-02-21T00:09:30;10.10;99.90
52965;DHT22;42923;53.220;6.528;2024-02-21T00:11:56;10.30;99.90
52965;DHT22;42923;53.220;6.528;2024-02-21T00:14:22;10.00;99.90
52965;DHT22;42923;53.220;6.528;2024-02-21T00:16:47;9.90;99.90
52965;DHT22;42923;53.220;6.528;2024-02-21T00:19:13;9.90;99.90
52965;DHT22;42923;53.220;6.528;2024-02-21T00:21:40;9.80;99.90
52965;DHT22;42923;53.220;6.528;2024-02-21T00:24:06;11.50;99.90
52965;DHT22;42923;53.220;6.528;2024-02-21T00:26:32;9.80;99.90
52965;DHT22;42923;53.220;6.528;2024-02-21T00:28:58;10.60;99.90
52965;DHT22;42923;53.220;6.528;2024-02-21T00:31:23;9.70;99.90
52965;DHT22;42923;53.220;6.528;2024-02-21T00:33:49;9.60;99.90
52965;DHT22;42923;53.220;6.528;2024-02-21T00:36:16;9.60;99.90
52965;DHT22;42923;53.220;6.528;2024-02-21T00:38:42;9.60;99.90
52965;DHT22;42923;53.220;6.528;2024-02-21T00:41:07;9.60;99.90
52965;DHT22;42923;53.220;6.528;2024-02-21T00:43:33;10.10;99.90
52965;DHT22;42923;53.220;6.528;2024-02-21T00:45:59;9.50;99.90
52965;DHT22;42923;53.220;6.528;2024-02-21T00:48:24;9.50;99.90
52965;DHT22;42923;53.220;6.528;2024-02-21T00:50:50;9.60;99.90
52965;DHT22;42923;53.220;6.528;2024-02-21T00:53:16;9.40;99.90
52965;DHT22;42923;53.220;6.528;2024-02-21T00:55:41;9.50;99.90
52965;DHT22;42923;53.220;6.528;2024-02-21T00:58:08;9.40;99.90
52965;DHT22;42923;53.220;6.528;2024-02-21T01:00:34;9.40;99.90
52965;DHT22;42923;53.220;6.528;2024-02-21T01:03:00;9.40;99.90
52965;DHT22;42923;53.220;6.528;2024-02-21T01:05:26;9.40;99.90
52965;DHT22;42923;53.220;6.528;2024-02-21T01:07:53;9.40;99.90
52965;DHT22;42923;53.220;6.528;2024-02-21T01:10:19;10.40;99.90
52965;DHT22;42923;53.220;6.528;2024-02-21T01:12:45;9.20;99.90
52965;DHT22;42923;53.220;6.528;2024-02-21T01:15:10;9.40;99.90
52965;DHT22;42923;53.220;6.528;2024-02-21T01:17:37;9.50;99.90
52965;DHT22;42923;53.220;6.528;2024-02-21T01:20:03;9.40;99.90
52965;DHT22;42923;53.220;6.528;2024-02-21T01:22:31;9.50;99.90
52965;DHT22;42923;53.220;6.528;2024-02-21T01:24:56;10.50;99.90
52965;DHT22;42923;53.220;6.528;2024-02-21T01:27:22;10.10;99.90
52965;DHT22;42923;53.220;6.528;2024-02-21T01:29:48;9.50;99.90
52965;DHT22;42923;53.220;6.528;2024-02-21T01:32:15;9.50;99.90
52965;DHT22;42923;53.220;6.528;2024-02-21T01:34:41;9.50;99.90
52965;DHT22;42923;53.220;6.528;2024-02-21T01:37:07;9.40;99.90
52965;DHT22;42923;53.220;6.528;2024-02-21T01:39:33;9.40;99.90
52965;DHT22;42923;53.220;6.528;2024-02-21T01:41:59;9.30;99.90
52965;DHT22;42923;53.220;6.528;2024-02-21T01:44:25;9.30;99.90
52965;DHT22;42923;53.220;6.528;2024-02-21T01:46:52;9.30;99.90
52965;DHT22;42923;53.220;6.528;2024-02-21T01:49:19;9.20;99.90
52965;DHT22;42923;53.220;6.528;2024-02-21T01:51:46;10.10;99.90
52965;DHT22;42923;53.220;6.528;2024-02-21T01:54:13;9.20;99.90
52965;DHT22;42923;53.220;6.528;2024-02-21T01:56:40;9.70;99.90
52965;DHT22;42923;53.220;6.528;2024-02-21T01:59:06;9.20;99.90
52965;DHT22;42923;53.220;6.528;2024-02-21T02:01:32;10.30;99.90
52965;DHT22;42923;53.220;6.528;2024-02-21T02:03:59;9.20;99.90
52965;DHT22;42923;53.220;6.528;2024-02-21T02:06:25;9.20;99.90
52965;DHT22;42923;53.220;6.528;2024-02-21T02:08:51;9.20;99.90
52965;DHT22;42923;53.220;6.528;2024-02-21T02:11:17;9.20;99.90
52965;DHT22;42923;53.220;6.528;2024-02-21T02:13:42;9.20;99.90
52965;DHT22;42923;53.220;6.528;2024-02-21T02:16:08;9.20;99.90
52965;DHT22;42923;53.220;6.528;2024-02-21T02:18:34;9.20;99.90
52965;DHT22;42923;53.220;6.528;2024-02-21T02:21:00;9.20;99.90
52965;DHT22;42923;53.220;6.528;2024-02-21T02:23:29;9.20;99.90
52965;DHT22;42923;53.220;6.528;2024-02-21T02:25:55;9.20;99.90
52965;DHT22;42923;53.220;6.528;2024-02-21T02:28:22;10.90;99.90
52965;DHT22;42923;53.220;6.528;2024-02-21T02:30:48;9.40;99.90
52965;DHT22;42923;53.220;6.528;2024-02-21T02:33:14;9.20;99.90
52965;DHT22;42923;53.220;6.528;2024-02-21T02:35:40;9.20;99.90
52965;DHT22;42923;53.220;6.528;2024-02-21T02:38:06;10.20;99.90
52965;DHT22;42923;53.220;6.528;2024-02-21T02:40:36;9.20;99.90
52965;DHT22;42923;53.220;6.528;2024-02-21T02:43:02;9.20;99.90
52965;DHT22;42923;53.220;6.528;2024-02-21T02:45:28;9.20;99.90
52965;DHT22;42923;53.220;6.528;2024-02-21T02:47:54;9.20;99.90
52965;DHT22;42923;53.220;6.528;2024-02-21T02:50:20;9.20;99.90
52965;DHT22;42923;53.220;6.528;2024-02-21T02:52:46;9.80;99.90
52965;DHT22;42923;53.220;6.528;2024-02-21T02:55:12;9.20;99.90
52965;DHT22;42923;53.220;6.528;2024-02-21T02:57:37;9.30;99.90
52965;DHT22;42923;53.220;6.528;2024-02-21T03:00:04;9.20;99.90
52965;DHT22;42923;53.220;6.528;2024-02-21T03:02:32;9.30;99.90
52965;DHT22;42923;53.220;6.528;2024-02-21T03:04:57;9.50;99.90
52965;DHT22;42923;53.220;6.528;2024-02-21T03:07:24;9.30;99.90
52965;DHT22;42923;53.220;6.528;2024-02-21T03:09:50;9.30;99.90
52965;DHT22;42923;53.220;6.528;2024-02-21T03:12:16;10.10;99.90
52965;DHT22;42923;53.220;6.528;2024-02-21T03:14:53;10.00;99.90
52965;DHT22;42923;53.220;6.528;2024-02-21T03:17:18;9.30;99.90
52965;DHT22;42923;53.220;6.528;2024-02-21T03:19:44;9.30;99.90
52965;DHT22;42923;53.220;6.528;2024-02-21T03:22:10;9.30;99.90
52965;DHT22;42923;53.220;6.528;2024-02-21T03:24:35;9.30;99.90
52965;DHT22;42923;53.220;6.528;2024-02-21T03:27:01;9.30;99.90
52965;DHT22;42923;53.220;6.528;2024-02-21T03:29:27;9.30;99.90
52965;DHT22;42923;53.220;6.528;2024-02-21T03:31:53;9.30;99.90
52965;DHT22;42923;53.220;6.528;2024-02-21T03:34:19;9.30;99.90
52965;DHT22;42923;53.220;6.528;2024-02-21T03:36:44;9.30;99.90
52965;DHT22;42923;53.220;6.528;2024-02-21T03:39:10;9.30;99.90
52965;DHT22;42923;53.220;6.528;2024-02-21T03:41:36;9.30;99.90
52965;DHT22;42923;53.220;6.528;2024-02-21T03:44:01;9.30;99.90
52965;DHT22;42923;53.220;6.528;2024-02-21T03:46:27;9.30;99.90
52965;DHT22;42923;53.220;6.528;2024-02-21T03:48:53;9.40;99.90
52965;DHT22;42923;53.220;6.528;2024-02-21T03:51:19;9.40;99.90
52965;DHT22;42923;53.220;6.528;2024-02-21T03:53:45;9.40;99.90
52965;DHT22;42923;53.220;6.528;2024-02-21T03:56:10;9.30;99.90
52965;DHT22;42923;53.220;6.528;2024-02-21T03:58:36;11.00;99.90
52965;DHT22;42923;53.220;6.528;2024-02-21T04:01:02;9.40;99.90
52965;DHT22;42923;53.220;6.528;2024-02-21T04:03:29;9.40;99.90
52965;DHT22;42923;53.220;6.528;2024-02-21T04:05:54;9.30;99.90
52965;DHT22;42923;53.220;6.528;2024-02-21T04:08:22;9.30;99.90
52965;DHT22;42923;53.220;6.528;2024-02-21T04:10:48;9.90;99.90
52965;DHT22;42923;53.220;6.528;2024-02-21T04:13:14;9.30;99.90
52965;DHT22;42923;53.220;6.528;2024-02-21T04:15:40;9.30;99.90
52965;DHT22;42923;53.220;6.528;2024-02-21T04:18:06;9.30;99.90
52965;DHT22;42923;53.220;6.528;2024-02-21T04:20:31;9.40;99.90
52965;DHT22;42923;53.220;6.528;2024-02-21T04:22:57;9.30;99.90
52965;DHT22;42923;53.220;6.528;2024-02-21T04:25:23;10.30;99.90
52965;DHT22;42923;53.220;6.528;2024-02-21T04:27:49;9.30;99.90
52965;DHT22;42923;53.220;6.528;2024-02-21T04:30:15;9.30;99.90
52965;DHT22;42923;53.220;6.528;2024-02-21T04:32:41;9.40;99.90
52965;DHT22;42923;53.220;6.528;2024-02-21T04:35:08;9.40;99.90
52965;DHT22;42923;53.220;6.528;2024-02-21T04:37:33;9.40;99.90
52965;DHT22;42923;53.220;6.528;2024-02-21T04:40:00;9.40;99.90
52965;DHT22;42923;53.220;6.528;2024-02-21T04:42:26;9.40;99.90
52965;DHT22;42923;53.220;6.528;2024-02-21T04:44:51;9.40;99.90
52965;DHT22;42923;53.220;6.528;2024-02-21T04:47:18;9.40;99.90
52965;DHT22;42923;53.220;6.528;2024-02-21T04:49:45;9.40;99.90
52965;DHT22;42923;53.220;6.528;2024-02-21T04:52:11;10.30;99.90
52965;DHT22;42923;53.220;6.528;2024-02-21T04:54:37;9.40;99.90
52965;DHT22;42923;53.220;6.528;2024-02-21T04:57:03;9.40;99.90
52965;DHT22;42923;53.220;6.528;2024-02-21T04:59:29;9.40;99.90
52965;DHT22;42923;53.220;6.528;2024-02-21T05:01:55;9.40;99.90
52965;DHT22;42923;53.220;6.528;2024-02-21T05:04:21;9.40;99.90
52965;DHT22;42923;53.220;6.528;2024-02-21T05:06:46;9.40;99.90
52965;DHT22;42923;53.220;6.528;2024-02-21T05:09:12;9.40;99.90
52965;DHT22;42923;53.220;6.528;2024-02-21T05:11:38;9.40;99.90
52965;DHT22;42923;53.220;6.528;2024-02-21T05:14:04;9.40;99.90
52965;DHT22;42923;53.220;6.528;2024-02-21T05:16:33;9.40;99.90
52965;DHT22;42923;53.220;6.528;2024-02-21T05:18:59;9.40;99.90
52965;DHT22;42923;53.220;6.528;2024-02-21T05:21:25;9.40;99.90
52965;DHT22;42923;53.220;6.528;2024-02-21T05:23:51;9.40;99.90
52965;DHT22;42923;53.220;6.528;2024-02-21T05:26:24;9.40;99.90
52965;DHT22;42923;53.220;6.528;2024-02-21T05:28:50;9.40;99.90
52965;DHT22;42923;53.220;6.528;2024-02-21T05:31:17;9.40;99.90
52965;DHT22;42923;53.220;6.528;2024-02-21T05:33:44;9.40;99.90
52965;DHT22;42923;53.220;6.528;2024-02-21T05:36:10;9.40;99.90
52965;DHT22;42923;53.220;6.528;2024-02-21T05:38:36;9.40;99.90
52965;DHT22;42923;53.220;6.528;2024-02-21T05:41:02;9.40;99.90
52965;DHT22;42923;53.220;6.528;2024-02-21T05:43:28;9.40;99.90
52965;DHT22;42923;53.220;6.528;2024-02-21T05:45:53;9.40;99.90
52965;DHT22;42923;53.220;6.528;2024-02-21T05:48:20;9.40;99.90
52965;DHT22;42923;53.220;6.528;2024-02-21T05:50:46;9.40;99.90
52965;DHT22;42923;53.220;6.528;2024-02-21T05:53:11;9.40;99.90
52965;DHT22;42923;53.220;6.528;2024-02-21T05:55:39;9.40;99.90
52965;DHT22;42923;53.220;6.528;2024-02-21T05:58:04;9.40;99.90
52965;DHT22;42923;53.220;6.528;2024-02-21T06:00:32;9.40;99.90
52965;DHT22;42923;53.220;6.528;2024-02-21T06:02:58;9.40;99.90
52965;DHT22;42923;53.220;6.528;2024-02-21T06:05:24;9.40;99.90
52965;DHT22;42923;53.220;6.528;2024-02-21T06:07:49;9.40;99.90
52965;DHT22;42923;53.220;6.528;2024-02-21T06:10:15;9.40;99.90
52965;DHT22;42923;53.220;6.528;2024-02-21T06:12:41;9.40;99.90
52965;DHT22;42923;53.220;6.528;2024-02-21T06:15:07;9.30;99.90
52965;DHT22;42923;53.220;6.528;2024-02-21T06:17:33;9.40;99.90
52965;DHT22;42923;53.220;6.528;2024-02-21T06:19:58;9.10;99.90
52965;DHT22;42923;53.220;6.528;2024-02-21T06:22:24;9.30;99.90
52965;DHT22;42923;53.220;6.528;2024-02-21T06:24:50;9.30;99.90
52965;DHT22;42923;53.220;6.528;2024-02-21T06:27:16;9.40;99.90
52965;DHT22;42923;53.220;6.528;2024-02-21T06:29:42;9.40;99.90
52965;DHT22;42923;53.220;6.528;2024-02-21T06:32:08;9.30;99.90
52965;DHT22;42923;53.220;6.528;2024-02-21T06:34:34;9.30;99.90
52965;DHT22;42923;53.220;6.528;2024-02-21T06:37:00;9.30;99.90
52965;DHT22;42923;53.220;6.528;2024-02-21T06:39:26;9.30;99.90
52965;DHT22;42923;53.220;6.528;2024-02-21T06:41:51;9.30;99.90
52965;DHT22;42923;53.220;6.528;2024-02-21T06:44:19;9.30;99.90
52965;DHT22;42923;53.220;6.528;2024-02-21T06:46:45;9.30;99.90
52965;DHT22;42923;53.220;6.528;2024-02-21T06:49:11;10.20;99.90
52965;DHT22;42923;53.220;6.528;2024-02-21T06:51:42;9.30;99.90
52965;DHT22;42923;53.220;6.528;2024-02-21T06:54:08;9.30;99.90
52965;DHT22;42923;53.220;6.528;2024-02-21T06:56:36;9.30;99.90
52965;DHT22;42923;53.220;6.528;2024-02-21T06:59:02;9.30;99.90
52965;DHT22;42923;53.220;6.528;2024-02-21T07:01:29;9.40;99.90
52965;DHT22;42923;53.220;6.528;2024-02-21T07:03:55;9.30;99.90
52965;DHT22;42923;53.220;6.528;2024-02-21T07:06:21;9.30;99.90
52965;DHT22;42923;53.220;6.528;2024-02-21T07:08:47;9.30;99.90
52965;DHT22;42923;53.220;6.528;2024-02-21T07:11:13;9.40;99.90
52965;DHT22;42923;53.220;6.528;2024-02-21T07:13:39;9.50;99.90
52965;DHT22;42923;53.220;6.528;2024-02-21T07:16:06;9.30;99.90
52965;DHT22;42923;53.220;6.528;2024-02-21T07:18:32;9.40;99.90
52965;DHT22;42923;53.220;6.528;2024-02-21T07:20:57;9.40;99.90
52965;DHT22;42923;53.220;6.528;2024-02-21T07:23:24;9.60;99.90
52965;DHT22;42923;53.220;6.528;2024-02-21T07:25:50;9.40;99.90
52965;DHT22;42923;53.220;6.528;2024-02-21T07:28:16;9.40;99.90
52965;DHT22;42923;53.220;6.528;2024-02-21T07:30:43;9.30;99.90
52965;DHT22;42923;53.220;6.528;2024-02-21T07:33:08;9.30;99.90
52965;DHT22;42923;53.220;6.528;2024-02-21T07:35:35;9.30;99.90
52965;DHT22;42923;53.220;6.528;2024-02-21T07:38:04;9.30;99.90
52965;DHT22;42923;53.220;6.528;2024-02-21T07:40:30;10.50;99.90
52965;DHT22;42923;53.220;6.528;2024-02-21T07:42:56;9.30;99.90
52965;DHT22;42923;53.220;6.528;2024-02-21T07:45:22;9.30;99.90
52965;DHT22;42923;53.220;6.528;2024-02-21T07:47:49;9.30;99.90
52965;DHT22;42923;53.220;6.528;2024-02-21T07:50:15;9.40;99.90
52965;DHT22;42923;53.220;6.528;2024-02-21T07:52:41;9.40;99.90
52965;DHT22;42923;53.220;6.528;2024-02-21T07:55:08;10.40;99.90
52965;DHT22;42923;53.220;6.528;2024-02-21T07:57:36;9.40;99.90
52965;DHT22;42923;53.220;6.528;2024-02-21T08:00:02;9.40;99.90
52965;DHT22;42923;53.220;6.528;2024-02-21T08:02:38;9.40;99.90
52965;DHT22;42923;53.220;6.528;2024-02-21T08:05:03;9.40;99.90
52965;DHT22;42923;53.220;6.528;2024-02-21T08:07:29;9.40;99.90
52965;DHT22;42923;53.220;6.528;2024-02-21T08:09:56;9.50;99.90
52965;DHT22;42923;53.220;6.528;2024-02-21T08:12:22;9.80;99.90
52965;DHT22;42923;53.220;6.528;2024-02-21T08:14:48;10.70;99.90
52965;DHT22;42923;53.220;6.528;2024-02-21T08:17:13;10.90;99.90
52965;DHT22;42923;53.220;6.528;2024-02-21T08:19:39;9.50;99.90
52965;DHT22;42923;53.220;6.528;2024-02-21T08:22:05;9.50;99.90
52965;DHT22;42923;53.220;6.528;2024-02-21T08:24:31;9.50;99.90
52965;DHT22;42923;53.220;6.528;2024-02-21T08:26:57;9.50;99.90
52965;DHT22;42923;53.220;6.528;2024-02-21T08:29:22;9.50;99.90
52965;DHT22;42923;53.220;6.528;2024-02-21T08:31:48;9.50;99.90
52965;DHT22;42923;53.220;6.528;2024-02-21T08:34:14;9.50;99.90
52965;DHT22;42923;53.220;6.528;2024-02-21T08:36:40;10.40;99.90
52965;DHT22;42923;53.220;6.528;2024-02-21T08:39:06;9.60;99.90
52965;DHT22;42923;53.220;6.528;2024-02-21T08:41:32;11.10;99.90
52965;DHT22;42923;53.220;6.528;2024-02-21T08:43:59;9.60;99.90
52965;DHT22;42923;53.220;6.528;2024-02-21T08:46:25;9.60;99.90
52965;DHT22;42923;53.220;6.528;2024-02-21T08:48:51;9.60;99.90
52965;DHT22;42923;53.220;6.528;2024-02-21T08:51:17;9.60;99.90
52965;DHT22;42923;53.220;6.528;2024-02-21T08:53:46;9.60;99.90
52965;DHT22;42923;53.220;6.528;2024-02-21T08:56:12;9.60;99.90
52965;DHT22;42923;53.220;6.528;2024-02-21T08:58:39;9.60;99.90
52965;DHT22;42923;53.220;6.528;2024-02-21T09:01:06;9.60;99.90
52965;DHT22;42923;53.220;6.528;2024-02-21T09:03:36;9.60;99.90
52965;DHT22;42923;53.220;6.528;2024-02-21T09:06:03;10.00;99.90
52965;DHT22;42923;53.220;6.528;2024-02-21T09:08:29;9.60;99.90
52965;DHT22;42923;53.220;6.528;2024-02-21T09:10:55;9.60;99.90
52965;DHT22;42923;53.220;6.528;2024-02-21T09:13:21;9.60;99.90
52965;DHT22;42923;53.220;6.528;2024-02-21T09:15:48;9.60;99.90
52965;DHT22;42923;53.220;6.528;2024-02-21T09:18:14;9.70;99.90
52965;DHT22;42923;53.220;6.528;2024-02-21T09:20:40;9.70;99.90
52965;DHT22;42923;53.220;6.528;2024-02-21T09:23:06;9.70;99.90
52965;DHT22;42923;53.220;6.528;2024-02-21T09:25:31;10.60;99.90
52965;DHT22;42923;53.220;6.528;2024-02-21T09:27:57;9.90;99.90
52965;DHT22;42923;53.220;6.528;2024-02-21T09:30:24;10.00;99.90
52965;DHT22;42923;53.220;6.528;2024-02-21T09:32:50;9.80;99.90
52965;DHT22;42923;53.220;6.528;2024-02-21T09:35:16;9.80;99.90
52965;DHT22;42923;53.220;6.528;2024-02-21T09:37:41;9.80;99.90
52965;DHT22;42923;53.220;6.528;2024-02-21T09:40:07;9.80;99.90
52965;DHT22;42923;53.220;6.528;2024-02-21T09:42:41;9.80;99.90
52965;DHT22;42923;53.220;6.528;2024-02-21T09:45:25;9.80;99.90
52965;DHT22;42923;53.220;6.528;2024-02-21T09:50:49;9.80;99.90
52965;DHT22;42923;53.220;6.528;2024-02-21T09:53:16;11.00;99.90
52965;DHT22;42923;53.220;6.528;2024-02-21T09:55:43;9.80;99.90
52965;DHT22;42923;53.220;6.528;2024-02-21T09:58:09;9.80;99.90
52965;DHT22;42923;53.220;6.528;2024-02-21T10:00:36;9.80;99.90
52965;DHT22;42923;53.220;6.528;2024-02-21T10:03:05;9.80;99.90
52965;DHT22;42923;53.220;6.528;2024-02-21T10:05:34;9.80;99.90
52965;DHT22;42923;53.220;6.528;2024-02-21T10:08:01;9.80;99.90
52965;DHT22;42923;53.220;6.528;2024-02-21T10:10:27;9.80;99.90
52965;DHT22;42923;53.220;6.528;2024-02-21T10:12:53;9.80;99.90
52965;DHT22;42923;53.220;6.528;2024-02-21T10:15:26;9.90;99.90
52965;DHT22;42923;53.220;6.528;2024-02-21T10:17:59;9.80;99.90
52965;DHT22;42923;53.220;6.528;2024-02-21T10:20:26;9.90;99.90
52965;DHT22;42923;53.220;6.528;2024-02-21T10:23:05;9.90;99.90
52965;DHT22;42923;53.220;6.528;2024-02-21T10:25:36;10.00;99.90
52965;DHT22;42923;53.220;6.528;2024-02-21T10:28:12;10.00;99.90
52965;DHT22;42923;53.220;6.528;2024-02-21T10:30:38;10.30;99.90
52965;DHT22;42923;53.220;6.528;2024-02-21T10:33:05;10.70;99.90
52965;DHT22;42923;53.220;6.528;2024-02-21T10:35:32;10.00;99.90
52965;DHT22;42923;53.220;6.528;2024-02-21T10:37:59;11.00;99.90
52965;DHT22;42923;53.220;6.528;2024-02-21T10:40:29;10.00;99.90
52965;DHT22;42923;53.220;6.528;2024-02-21T10:42:59;10.00;99.90
52965;DHT22;42923;53.220;6.528;2024-02-21T10:45:34;10.00;99.90
52965;DHT22;42923;53.220;6.528;2024-02-21T10:48:14;10.70;99.90
52965;DHT22;42923;53.220;6.528;2024-02-21T10:51:12;10.00;99.90
52965;DHT22;42923;53.220;6.528;2024-02-21T10:56:31;10.00;99.90
52965;DHT22;42923;53.220;6.528;2024-02-21T10:58:58;10.00;99.90
52965;DHT22;42923;53.220;6.528;2024-02-21T11:01:26;10.00;99.90
52965;DHT22;42923;53.220;6.528;2024-02-21T11:03:55;11.20;99.90
52965;DHT22;42923;53.220;6.528;2024-02-21T11:06:22;10.30;99.90
52965;DHT22;42923;53.220;6.528;2024-02-21T11:09:08;10.40;99.90
52965;DHT22;42923;53.220;6.528;2024-02-21T11:11:38;10.50;99.90
52965;DHT22;42923;53.220;6.528;2024-02-21T11:14:26;10.60;99.90
52965;DHT22;42923;53.220;6.528;2024-02-21T11:16:52;11.20;99.90
52965;DHT22;42923;53.220;6.528;2024-02-21T11:19:22;11.20;99.90
52965;DHT22;42923;53.220;6.528;2024-02-21T11:21:49;11.50;99.90
52965;DHT22;42923;53.220;6.528;2024-02-21T11:24:34;11.70;99.90
52965;DHT22;42923;53.220;6.528;2024-02-21T11:27:11;10.90;99.90
52965;DHT22;42923;53.220;6.528;2024-02-21T11:29:47;10.90;99.90
52965;DHT22;42923;53.220;6.528;2024-02-21T11:32:17;10.90;99.90
52965;DHT22;42923;53.220;6.528;2024-02-21T11:35:00;10.90;99.90
52965;DHT22;42923;53.220;6.528;2024-02-21T11:37:33;11.80;99.90
52965;DHT22;42923;53.220;6.528;2024-02-21T11:40:00;10.80;99.90
52965;DHT22;42923;53.220;6.528;2024-02-21T11:42:29;11.00;99.90
52965;DHT22;42923;53.220;6.528;2024-02-21T11:45:00;10.70;99.90
52965;DHT22;42923;53.220;6.528;2024-02-21T11:47:28;10.70;99.90
52965;DHT22;42923;53.220;6.528;2024-02-21T11:49:54;10.70;99.90
52965;DHT22;42923;53.220;6.528;2024-02-21T11:52:24;10.00;99.90
52965;DHT22;42923;53.220;6.528;2024-02-21T11:54:51;10.70;99.90
52965;DHT22;42923;53.220;6.528;2024-02-21T11:57:18;10.60;99.90
52965;DHT22;42923;53.220;6.528;2024-02-21T11:59:45;10.50;99.90
52965;DHT22;42923;53.220;6.528;2024-02-21T12:02:11;10.60;99.90
52965;DHT22;42923;53.220;6.528;2024-02-21T12:04:37;10.50;99.90
52965;DHT22;42923;53.220;6.528;2024-02-21T12:07:03;10.60;99.90
52965;DHT22;42923;53.220;6.528;2024-02-21T12:09:30;10.60;99.90
52965;DHT22;42923;53.220;6.528;2024-02-21T12:12:05;10.60;99.90
52965;DHT22;42923;53.220;6.528;2024-02-21T12:14:35;10.60;99.90
52965;DHT22;42923;53.220;6.528;2024-02-21T12:17:01;10.60;99.90
52965;DHT22;42923;53.220;6.528;2024-02-21T12:19:30;10.60;99.90
52965;DHT22;42923;53.220;6.528;2024-02-21T12:21:58;11.40;99.90
52965;DHT22;42923;53.220;6.528;2024-02-21T12:24:26;10.50;99.90
52965;DHT22;42923;53.220;6.528;2024-02-21T12:26:52;10.70;99.90
52965;DHT22;42923;53.220;6.528;2024-02-21T12:29:22;10.40;99.90
52965;DHT22;42923;53.220;6.528;2024-02-21T12:31:48;10.40;99.90
52965;DHT22;42923;53.220;6.528;2024-02-21T12:34:15;10.40;99.90
52965;DHT22;42923;53.220;6.528;2024-02-21T12:36:42;10.40;99.90
52965;DHT22;42923;53.220;6.528;2024-02-21T12:39:09;10.50;99.90
52965;DHT22;42923;53.220;6.528;2024-02-21T12:41:35;10.50;99.90
52965;DHT22;42923;53.220;6.528;2024-02-21T12:44:04;11.60;99.90
52965;DHT22;42923;53.220;6.528;2024-02-21T12:46:33;10.60;99.90
52965;DHT22;42923;53.220;6.528;2024-02-21T12:48:59;10.60;99.90
52965;DHT22;42923;53.220;6.528;2024-02-21T12:51:24;10.60;99.90
52965;DHT22;42923;53.220;6.528;2024-02-21T12:53:50;10.80;99.90
52965;DHT22;42923;53.220;6.528;2024-02-21T12:56:16;10.60;99.90
52965;DHT22;42923;53.220;6.528;2024-02-21T12:58:42;10.60;99.90
52965;DHT22;42923;53.220;6.528;2024-02-21T13:01:08;10.60;99.90
52965;DHT22;42923;53.220;6.528;2024-02-21T13:03:34;10.60;99.90
52965;DHT22;42923;53.220;6.528;2024-02-21T13:06:00;10.60;99.90
52965;DHT22;42923;53.220;6.528;2024-02-21T13:08:25;11.30;99.90
52965;DHT22;42923;53.220;6.528;2024-02-21T13:10:51;10.60;99.90
52965;DHT22;42923;53.220;6.528;2024-02-21T13:13:17;10.60;99.90
52965;DHT22;42923;53.220;6.528;2024-02-21T13:15:43;10.60;99.90
52965;DHT22;42923;53.220;6.528;2024-02-21T13:18:09;10.70;99.90
52965;DHT22;42923;53.220;6.528;2024-02-21T13:20:35;10.70;99.90
52965;DHT22;42923;53.220;6.528;2024-02-21T13:23:01;10.80;99.90
52965;DHT22;42923;53.220;6.528;2024-02-21T13:25:26;10.90;99.90
52965;DHT22;42923;53.220;6.528;2024-02-21T13:27:52;10.80;99.90
52965;DHT22;42923;53.220;6.528;2024-02-21T13:30:18;10.80;99.90
52965;DHT22;42923;53.220;6.528;2024-02-21T13:32:44;10.90;99.90
52965;DHT22;42923;53.220;6.528;2024-02-21T13:35:12;10.90;99.90
52965;DHT22;42923;53.220;6.528;2024-02-21T13:37:39;10.70;99.90
52965;DHT22;42923;53.220;6.528;2024-02-21T13:40:05;10.90;99.90
52965;DHT22;42923;53.220;6.528;2024-02-21T13:42:31;11.00;99.90
52965;DHT22;42923;53.220;6.528;2024-02-21T13:44:57;10.90;99.90
52965;DHT22;42923;53.220;6.528;2024-02-21T13:47:23;12.50;99.90
52965;DHT22;42923;53.220;6.528;2024-02-21T13:49:48;10.80;99.90
52965;DHT22;42923;53.220;6.528;2024-02-21T13:52:15;10.90;99.90
52965;DHT22;42923;53.220;6.528;2024-02-21T13:54:44;10.70;99.90
52965;DHT22;42923;53.220;6.528;2024-02-21T13:57:10;10.80;99.90
52965;DHT22;42923;53.220;6.528;2024-02-21T13:59:35;10.70;99.90
52965;DHT22;42923;53.220;6.528;2024-02-21T14:02:01;10.70;99.90
52965;DHT22;42923;53.220;6.528;2024-02-21T14:04:27;10.60;99.90
52965;DHT22;42923;53.220;6.528;2024-02-21T14:06:52;10.60;99.90
52965;DHT22;42923;53.220;6.528;2024-02-21T14:09:19;11.10;99.90
52965;DHT22;42923;53.220;6.528;2024-02-21T14:11:44;10.60;99.90
52965;DHT22;42923;53.220;6.528;2024-02-21T14:14:11;10.50;99.90
52965;DHT22;42923;53.220;6.528;2024-02-21T14:16:36;10.60;99.90
52965;DHT22;42923;53.220;6.528;2024-02-21T14:19:02;11.80;99.90
52965;DHT22;42923;53.220;6.528;2024-02-21T14:21:28;10.50;99.90
52965;DHT22;42923;53.220;6.528;2024-02-21T14:23:54;10.50;99.90
52965;DHT22;42923;53.220;6.528;2024-02-21T14:26:20;10.50;99.90
52965;DHT22;42923;53.220;6.528;2024-02-21T14:28:47;10.50;99.90
52965;DHT22;42923;53.220;6.528;2024-02-21T14:31:13;10.40;99.90
52965;DHT22;42923;53.220;6.528;2024-02-21T14:33:38;10.40;99.90
52965;DHT22;42923;53.220;6.528;2024-02-21T14:36:05;10.40;99.90
52965;DHT22;42923;53.220;6.528;2024-02-21T14:38:31;10.40;99.90
52965;DHT22;42923;53.220;6.528;2024-02-21T14:40:56;10.30;99.90
52965;DHT22;42923;53.220;6.528;2024-02-21T14:43:22;10.30;99.90
52965;DHT22;42923;53.220;6.528;2024-02-21T14:45:48;10.30;99.90
52965;DHT22;42923;53.220;6.528;2024-02-21T14:48:14;10.30;99.90
52965;DHT22;42923;53.220;6.528;2024-02-21T14:50:40;10.20;99.90
52965;DHT22;42923;53.220;6.528;2024-02-21T14:53:07;10.20;99.90
52965;DHT22;42923;53.220;6.528;2024-02-21T14:55:34;10.10;99.90
52965;DHT22;42923;53.220;6.528;2024-02-21T14:57:59;10.10;99.90
52965;DHT22;42923;53.220;6.528;2024-02-21T15:00:26;10.10;99.90
52965;DHT22;42923;53.220;6.528;2024-02-21T15:02:57;10.00;99.90
52965;DHT22;42923;53.220;6.528;2024-02-21T15:05:23;10.00;99.90
52965;DHT22;42923;53.220;6.528;2024-02-21T15:07:49;10.00;99.90
52965;DHT22;42923;53.220;6.528;2024-02-21T15:10:16;10.00;99.90
52965;DHT22;42923;53.220;6.528;2024-02-21T15:12:45;10.00;99.90
52965;DHT22;42923;53.220;6.528;2024-02-21T15:15:11;9.90;99.90
52965;DHT22;42923;53.220;6.528;2024-02-21T15:17:36;10.90;99.90
52965;DHT22;42923;53.220;6.528;2024-02-21T15:20:02;10.00;99.90
52965;DHT22;42923;53.220;6.528;2024-02-21T15:22:30;10.00;99.90
52965;DHT22;42923;53.220;6.528;2024-02-21T15:24:56;9.90;99.90
52965;DHT22;42923;53.220;6.528;2024-02-21T15:27:21;9.90;99.90
52965;DHT22;42923;53.220;6.528;2024-02-21T15:29:47;9.90;99.90
52965;DHT22;42923;53.220;6.528;2024-02-21T15:32:13;9.90;99.90
52965;DHT22;42923;53.220;6.528;2024-02-21T15:34:39;9.90;99.90
52965;DHT22;42923;53.220;6.528;2024-02-21T15:37:05;9.90;99.90
52965;DHT22;42923;53.220;6.528;2024-02-21T15:39:30;10.00;99.90
52965;DHT22;42923;53.220;6.528;2024-02-21T15:41:56;9.80;99.90
52965;DHT22;42923;53.220;6.528;2024-02-21T15:44:22;9.90;99.90